Time;durP1;ratioP1;P1;durP2;ratioP2;P2;SDS_P1;SDS_P2;PMS_P1;PMS_P2;Temp;Humidity;BMP_temperature;BMP_pressure;BME280_temperature;BME280_humidity;BME280_pressure;Samples;Min_cycle;Max_cycle;Signal;HPM_P1;HPM_P2
2023/12/20 00:00:37;;;;;;;8.52;7.38;;;;;;;20.38;38.50;101199.00;4622166;31;20058;-62
2023/12/20 00:03:05;;;;;;;10.30;8.68;;;;;;;20.38;38.59;101194.50;4628846;31;20059;-60
2023/12/20 00:05:33;;;;;;;9.48;8.48;;;;;;;20.36;38.42;101193.75;4626371;31;20070;-64
2023/12/20 00:08:00;;;;;;;8.70;7.32;;;;;;;20.35;38.45;101188.50;4625579;31;20052;-59
2023/12/20 00:10:28;;;;;;;10.40;8.57;;;;;;;20.32;38.61;101188.75;4621302;31;20580;-59
2023/12/20 00:12:55;;;;;;;9.13;8.18;;;;;;;20.29;38.91;101189.88;4628266;31;20075;-59
2023/12/20 00:15:23;;;;;;;10.20;8.07;;;;;;;20.27;39.20;101182.94;4626459;31;20070;-59
2023/12/20 00:17:50;;;;;;;9.73;7.13;;;;;;;20.23;39.04;101179.63;4628666;31;20067;-65
2023/12/20 00:20:18;;;;;;;10.07;8.32;;;;;;;20.22;39.00;101177.94;4629017;31;20428;-65
2023/12/20 00:22:46;;;;;;;9.82;8.52;;;;;;;20.18;38.89;101173.81;4629255;31;20107;-65
2023/12/20 00:25:13;;;;;;;12.00;8.20;;;;;;;20.16;38.69;101176.59;4626760;31;20059;-65
2023/12/20 00:27:41;;;;;;;9.18;8.05;;;;;;;20.15;38.72;101179.44;4628297;31;20515;-64
2023/12/20 00:30:10;;;;;;;10.85;8.07;;;;;;;20.13;38.66;101162.56;4628815;31;20051;-65
2023/12/20 00:32:38;;;;;;;14.57;8.07;;;;;;;20.11;38.59;101169.91;4628817;31;20488;-65
2023/12/20 00:35:05;;;;;;;10.25;7.72;;;;;;;20.09;38.60;101158.44;4626221;31;20067;-65
2023/12/20 00:37:33;;;;;;;9.27;7.85;;;;;;;20.08;38.46;101154.91;4628577;31;20067;-64
2023/12/20 00:40:00;;;;;;;11.55;7.97;;;;;;;20.06;38.47;101146.13;4628967;31;20067;-65
2023/12/20 00:42:28;;;;;;;10.20;7.15;;;;;;;20.04;38.58;101134.63;4629093;31;20523;-65
2023/12/20 00:44:55;;;;;;;11.05;7.63;;;;;;;20.03;38.60;101142.84;4626122;31;20424;-65
2023/12/20 00:47:22;;;;;;;10.20;8.60;;;;;;;20.04;38.56;101137.31;4628681;31;20415;-64
2023/12/20 00:49:50;;;;;;;8.95;8.05;;;;;;;20.02;38.52;101128.56;4629052;31;20067;-64
2023/12/20 00:52:18;;;;;;;10.20;8.27;;;;;;;20.01;38.70;101124.13;4629968;31;20067;-65
2023/12/20 00:54:45;;;;;;;13.40;8.20;;;;;;;20.01;38.59;101116.06;4619749;31;20055;-65
2023/12/20 00:57:13;;;;;;;10.98;8.00;;;;;;;19.99;38.70;101115.38;4631963;31;20070;-64
2023/12/20 00:59:40;;;;;;;10.18;8.10;;;;;;;19.98;38.66;101113.66;4632186;31;20047;-65
2023/12/20 01:02:09;;;;;;;11.13;8.15;;;;;;;19.98;38.66;101109.13;4632123;31;20066;-65
2023/12/20 01:04:36;;;;;;;10.00;7.88;;;;;;;19.97;38.48;101098.50;4629217;31;20060;-65
2023/12/20 01:07:04;;;;;;;8.77;7.75;;;;;;;19.96;38.62;101100.34;4631595;31;20070;-60
2023/12/20 01:09:31;;;;;;;10.85;8.63;;;;;;;19.96;38.44;101091.44;4631679;31;20161;-60
2023/12/20 01:11:58;;;;;;;8.07;7.28;;;;;;;19.95;38.60;101100.47;4631643;31;20062;-60
2023/12/20 01:14:26;;;;;;;8.95;7.13;;;;;;;19.93;38.45;101087.19;4641738;30;20056;-60
2023/12/20 01:16:53;;;;;;;11.10;7.90;;;;;;;19.93;38.64;101087.19;4631688;31;20051;-60
2023/12/20 01:19:21;;;;;;;9.52;7.72;;;;;;;19.93;38.67;101091.69;4630284;31;20073;-60
2023/12/20 01:21:48;;;;;;;7.82;6.88;;;;;;;19.93;38.51;101083.63;4631732;31;20523;-60
2023/12/20 01:24:16;;;;;;;9.30;7.68;;;;;;;19.92;38.62;101080.09;4628736;31;20063;-60
2023/12/20 01:26:43;;;;;;;9.57;7.63;;;;;;;19.92;38.67;101074.72;4631944;31;20066;-65
2023/12/20 01:29:11;;;;;;;9.40;8.07;;;;;;;19.91;38.64;101072.16;4631600;31;20043;-65
2023/12/20 01:31:38;;;;;;;9.73;7.13;;;;;;;19.93;38.67;101075.56;4631575;31;20062;-65
2023/12/20 01:34:05;;;;;;;9.02;7.40;;;;;;;19.91;38.59;101067.63;4629179;31;20063;-65
2023/12/20 01:36:33;;;;;;;10.77;7.50;;;;;;;19.90;38.71;101063.25;4631486;31;20063;-65
2023/12/20 01:39:00;;;;;;;9.02;7.40;;;;;;;19.90;38.76;101059.72;4631399;31;20055;-65
2023/12/20 01:41:29;;;;;;;8.30;6.85;;;;;;;19.89;38.89;101058.88;4631596;31;20047;-65
2023/12/20 01:43:56;;;;;;;9.02;7.97;;;;;;;19.88;38.74;101057.16;4628622;31;20059;-65
2023/12/20 01:46:24;;;;;;;10.27;7.53;;;;;;;19.90;38.75;101048.97;4631428;31;20066;-61
2023/12/20 01:48:52;;;;;;;11.63;8.00;;;;;;;19.89;38.94;101047.25;4630972;31;20055;-60
2023/12/20 01:51:21;;;;;;;9.13;7.28;;;;;;;19.88;38.76;101042.84;4631203;31;20059;-60
2023/12/20 01:53:49;;;;;;;7.63;6.78;;;;;;;19.88;38.67;101029.44;4628184;31;20059;-60
2023/12/20 01:56:17;;;;;;;9.02;7.70;;;;;;;19.87;38.59;101036.63;4631109;31;20055;-62
2023/12/20 01:58:46;;;;;;;8.63;6.65;;;;;;;19.86;38.77;101029.56;4631038;31;20059;-63
2023/12/20 02:01:13;;;;;;;8.05;6.45;;;;;;;19.86;38.76;101028.72;4630899;31;20511;-63
2023/12/20 02:03:42;;;;;;;9.05;7.35;;;;;;;19.85;38.64;101027.00;4627689;31;20056;-63
2023/12/20 02:06:09;;;;;;;8.02;6.75;;;;;;;19.86;38.78;101026.88;4630989;31;20070;-62
2023/12/20 02:08:37;;;;;;;9.93;7.78;;;;;;;19.85;38.87;101024.31;4630791;31;20063;-63
2023/12/20 02:11:04;;;;;;;8.20;6.65;;;;;;;19.85;38.62;101018.94;4615255;31;20083;-63
2023/12/20 02:13:32;;;;;;;8.30;7.28;;;;;;;19.85;38.50;101016.25;4629216;31;20508;-63
2023/12/20 02:16:00;;;;;;;7.80;6.97;;;;;;;19.84;38.65;101011.88;4631137;31;20059;-60
2023/12/20 02:18:27;;;;;;;8.00;6.53;;;;;;;19.83;38.70;101008.34;4630963;31;20504;-63
2023/12/20 02:20:56;;;;;;;9.07;7.00;;;;;;;19.84;38.64;101011.88;4630548;31;20067;-63
2023/12/20 02:23:23;;;;;;;10.20;7.18;;;;;;;19.83;38.57;101010.16;4618705;31;20056;-65
2023/12/20 02:25:51;;;;;;;8.30;6.78;;;;;;;19.81;38.46;100991.50;4630754;31;20056;-64
2023/12/20 02:28:18;;;;;;;9.52;7.82;;;;;;;19.80;38.68;100995.16;4630446;30;20059;-65
2023/12/20 02:30:46;;;;;;;10.50;7.13;;;;;;;19.81;38.70;100996.00;4631095;31;20388;-65
2023/12/20 02:33:14;;;;;;;7.75;6.95;;;;;;;19.80;38.56;100983.56;4628627;31;20143;-66
2023/12/20 02:35:41;;;;;;;8.88;7.55;;;;;;;19.80;38.60;100987.09;4630432;31;20055;-65
2023/12/20 02:38:09;;;;;;;10.55;6.70;;;;;;;19.79;38.62;100993.44;4630927;31;20074;-65
2023/12/20 02:40:36;;;;;;;8.10;6.78;;;;;;;19.79;38.58;100992.59;4629994;31;20056;-65
2023/12/20 02:43:03;;;;;;;8.02;6.28;;;;;;;19.78;38.60;100986.38;4627774;31;20070;-65
2023/12/20 02:45:31;;;;;;;8.13;6.65;;;;;;;19.77;38.63;100995.44;4628846;31;20066;-65
2023/12/20 02:47:58;;;;;;;8.52;6.82;;;;;;;19.78;38.71;100988.22;4630738;31;20060;-65
2023/12/20 02:50:26;;;;;;;8.85;7.03;;;;;;;19.78;38.60;100989.06;4630104;31;20055;-66
2023/12/20 02:52:53;;;;;;;7.15;6.43;;;;;;;19.76;38.54;100989.19;4627551;31;20064;-65
2023/12/20 02:55:20;;;;;;;10.80;6.90;;;;;;;19.76;38.64;100980.28;4626397;31;20077;-65
2023/12/20 02:57:48;;;;;;;7.85;6.60;;;;;;;19.75;38.61;100976.75;4624407;31;20055;-65
2023/12/20 03:00:16;;;;;;;8.65;6.50;;;;;;;19.74;38.66;100980.41;4629928;31;20047;-65
2023/12/20 03:02:43;;;;;;;8.65;6.53;;;;;;;19.74;38.70;100990.31;4627478;31;20056;-64
2023/12/20 03:05:10;;;;;;;6.70;6.00;;;;;;;19.73;38.70;100977.88;4630170;31;20523;-65
2023/12/20 03:07:38;;;;;;;7.78;6.22;;;;;;;19.73;38.70;100977.88;4630017;31;20058;-64
2023/12/20 03:10:07;;;;;;;8.60;6.53;;;;;;;19.74;38.76;100974.19;4629879;31;20060;-64
2023/12/20 03:12:46;;;;;;;8.63;6.50;;;;;;;19.72;38.89;100982.38;4627662;31;20063;-64
2023/12/20 03:15:14;;;;;;;7.85;6.50;;;;;;;19.72;38.89;100986.91;4629086;31;20067;-64
2023/12/20 03:17:42;;;;;;;7.38;6.03;;;;;;;19.71;38.82;100988.72;4629828;31;20497;-64
2023/12/20 03:20:10;;;;;;;7.95;6.20;;;;;;;19.72;38.75;100993.13;4628109;31;20055;-64
2023/12/20 03:22:37;;;;;;;8.40;5.97;;;;;;;19.72;38.92;100992.25;4628727;31;20067;-64
2023/12/20 03:25:05;;;;;;;7.13;6.10;;;;;;;19.71;39.07;100991.41;4629761;31;20082;-64
2023/12/20 03:27:32;;;;;;;8.02;6.15;;;;;;;19.70;38.90;100991.56;4629618;31;20062;-64
2023/12/20 03:30:00;;;;;;;7.43;6.28;;;;;;;19.70;38.77;100989.72;4628256;31;20393;-64
2023/12/20 03:32:27;;;;;;;6.70;5.85;;;;;;;19.70;38.98;100987.03;4628487;31;20048;-64
2023/12/20 03:34:54;;;;;;;8.43;5.80;;;;;;;19.70;38.95;100996.94;4629480;31;20067;-64
2023/12/20 03:37:23;;;;;;;6.80;5.80;;;;;;;19.70;38.90;100988.88;4623456;31;20056;-59
2023/12/20 03:39:50;;;;;;;7.93;6.85;;;;;;;19.69;38.72;100992.56;4626923;31;20066;-59
2023/12/20 03:42:18;;;;;;;8.18;6.97;;;;;;;19.68;38.76;100977.41;4628885;31;20497;-59
2023/12/20 03:44:45;;;;;;;7.68;6.00;;;;;;;19.68;38.78;100991.66;4629905;31;20396;-58
2023/12/20 03:47:12;;;;;;;8.10;6.00;;;;;;;19.68;38.92;100980.94;4629955;31;20082;-59
2023/12/20 03:49:40;;;;;;;8.20;6.22;;;;;;;19.67;38.72;100976.53;4627640;31;20055;-59
2023/12/20 03:52:07;;;;;;;13.88;7.10;;;;;;;19.66;38.77;100971.31;4628181;31;20059;-58
2023/12/20 03:54:35;;;;;;;6.65;5.68;;;;;;;19.65;38.70;100962.41;4629385;31;20416;-58
2023/12/20 03:57:03;;;;;;;8.85;5.95;;;;;;;19.66;38.70;100965.94;4629247;31;20059;-64
2023/12/20 03:59:36;;;;;;;6.05;5.32;;;;;;;19.65;38.91;100965.09;4627153;31;20059;-65
2023/12/20 04:02:04;;;;;;;7.35;5.53;;;;;;;19.65;38.88;100950.81;4629005;31;20063;-65
2023/12/20 04:04:31;;;;;;;7.63;5.80;;;;;;;19.64;38.82;100955.31;4629665;31;20059;-65
2023/12/20 04:06:59;;;;;;;6.80;5.07;;;;;;;19.64;38.83;100941.03;4629011;31;20063;-59
2023/12/20 04:09:26;;;;;;;7.43;5.90;;;;;;;19.63;38.63;100932.13;4626587;31;20060;-59
2023/12/20 04:11:54;;;;;;;5.85;5.18;;;;;;;19.64;38.78;100939.19;4629226;31;20058;-59
2023/12/20 04:14:21;;;;;;;6.95;5.72;;;;;;;19.63;38.97;100929.44;4629162;31;20059;-59
2023/12/20 04:16:49;;;;;;;7.18;4.93;;;;;;;19.64;38.97;100924.91;4629141;31;20051;-66
2023/12/20 04:19:16;;;;;;;6.03;5.28;;;;;;;19.64;38.86;100919.56;4626501;31;20075;-65
2023/12/20 04:21:43;;;;;;;7.72;5.90;;;;;;;19.63;38.93;100915.16;4628484;31;20062;-66
2023/12/20 04:24:11;;;;;;;7.20;5.63;;;;;;;19.64;39.06;100914.19;4629069;31;20051;-65
2023/12/20 04:26:38;;;;;;;7.75;5.85;;;;;;;19.62;38.95;100902.72;4628565;31;20520;-64
2023/12/20 04:29:06;;;;;;;7.82;5.57;;;;;;;19.64;38.95;100903.44;4626301;30;20078;-65
2023/12/20 04:31:33;;;;;;;7.03;5.15;;;;;;;19.64;39.03;100888.16;4628864;31;20058;-59
2023/12/20 04:34:01;;;;;;;7.18;5.22;;;;;;;19.66;39.11;100878.16;4629068;31;20393;-59
2023/12/20 04:36:29;;;;;;;6.63;4.55;;;;;;;19.66;39.39;100880.84;4629165;31;20051;-64
2023/12/20 04:38:57;;;;;;;6.07;4.82;;;;;;;19.65;39.37;100878.31;4626005;31;20060;-65
2023/12/20 04:41:24;;;;;;;6.63;5.35;;;;;;;19.64;39.30;100869.38;4629012;30;20412;-65
2023/12/20 04:43:52;;;;;;;7.50;5.18;;;;;;;19.64;39.25;100857.78;4628844;31;20055;-65
2023/12/20 04:46:19;;;;;;;7.97;5.05;;;;;;;19.65;39.24;100857.66;4625397;31;20416;-64
2023/12/20 04:48:46;;;;;;;6.78;4.43;;;;;;;19.66;39.32;100847.78;4626368;31;20062;-65
2023/12/20 04:51:14;;;;;;;6.38;4.97;;;;;;;19.65;39.20;100838.88;4628361;31;20052;-65
2023/12/20 04:53:41;;;;;;;6.65;4.85;;;;;;;19.64;39.33;100839.81;4623177;31;20427;-65
2023/12/20 04:56:08;;;;;;;5.97;4.85;;;;;;;19.64;39.34;100847.88;4628701;31;20416;-60
2023/12/20 04:58:36;;;;;;;6.43;4.45;;;;;;;19.63;39.20;100853.41;4626374;31;20420;-60
2023/12/20 05:01:05;;;;;;;5.75;4.63;;;;;;;19.64;39.10;100858.63;4628346;31;20059;-63
2023/12/20 05:03:33;;;;;;;7.32;4.82;;;;;;;19.66;39.46;100862.03;4628818;31;20055;-64
2023/12/20 05:06:01;;;;;;;4.97;4.18;;;;;;;19.66;39.44;100863.88;4628566;31;20059;-64
2023/12/20 05:08:28;;;;;;;6.93;4.45;;;;;;;19.67;39.28;100863.75;4626298;31;20402;-64
2023/12/20 05:10:56;;;;;;;5.57;4.45;;;;;;;19.64;39.34;100864.00;4628440;31;20062;-65
2023/12/20 05:13:23;;;;;;;5.75;4.30;;;;;;;19.63;39.32;100873.06;4629002;31;20059;-65
2023/12/20 05:16:04;;;;;;;6.65;4.93;;;;;;;19.61;39.09;100875.03;4628204;31;20055;-64
2023/12/20 05:18:31;;;;;;;6.90;4.95;;;;;;;19.60;38.86;100865.22;4626833;31;20052;-64
2023/12/20 05:20:59;;;;;;;8.73;5.43;;;;;;;19.58;38.83;100858.28;4628848;31;20055;-65
2023/12/20 05:23:26;;;;;;;5.45;4.57;;;;;;;19.58;38.98;100861.81;4628740;31;20055;-64
2023/12/20 05:25:56;;;;;;;7.10;4.82;;;;;;;19.58;39.04;100859.16;4627873;31;20056;-63
2023/12/20 05:28:25;;;;;;;6.88;5.00;;;;;;;19.57;39.05;100860.13;4625190;31;20052;-64
2023/12/20 05:30:54;;;;;;;6.22;4.88;;;;;;;19.57;38.99;100860.13;4628213;31;20500;-64
2023/12/20 05:33:21;;;;;;;5.15;4.05;;;;;;;19.57;39.09;100870.00;4628473;31;20051;-64
2023/12/20 05:35:48;;;;;;;7.57;4.82;;;;;;;19.56;39.12;100873.69;4627191;31;20055;-64
2023/12/20 05:38:16;;;;;;;6.75;4.45;;;;;;;19.55;39.07;100874.66;4626871;31;20075;-63
2023/12/20 05:40:44;;;;;;;6.75;4.20;;;;;;;19.56;39.16;100892.47;4631406;31;20480;-63
2023/12/20 05:43:11;;;;;;;5.97;4.43;;;;;;;19.55;38.84;100890.78;4631699;31;20088;-63
2023/12/20 05:45:38;;;;;;;6.75;4.30;;;;;;;19.54;38.92;100892.63;4630062;31;20055;-63
2023/12/20 05:48:06;;;;;;;6.03;4.88;;;;;;;19.53;38.98;100898.97;4629972;31;20500;-64
2023/12/20 05:50:34;;;;;;;5.22;4.10;;;;;;;19.53;38.92;100898.97;4631392;31;20066;-64
2023/12/20 05:53:02;;;;;;;5.18;4.13;;;;;;;19.52;38.99;100881.13;4631330;31;20060;-65
2023/12/20 05:55:29;;;;;;;6.05;3.72;;;;;;;19.53;39.22;100872.13;4629922;31;20500;-65
2023/12/20 05:57:57;;;;;;;6.25;4.40;;;;;;;19.54;39.33;100886.41;4630306;31;20060;-64
2023/12/20 06:00:25;;;;;;;5.28;3.75;;;;;;;19.54;39.38;100891.78;4631061;31;20444;-63
2023/12/20 06:02:52;;;;;;;5.63;4.28;;;;;;;19.52;39.28;100879.31;4631149;31;20519;-64
2023/12/20 06:05:20;;;;;;;6.38;4.05;;;;;;;19.52;39.34;100878.47;4629618;31;20059;-63
2023/12/20 06:07:48;;;;;;;5.28;4.28;;;;;;;19.53;39.28;100893.59;4625902;31;20070;-63
2023/12/20 06:10:18;;;;;;;5.93;4.50;;;;;;;19.52;39.40;100899.94;4630972;31;20066;-63
2023/12/20 06:12:50;;;;;;;6.50;4.03;;;;;;;19.51;39.39;100898.25;4630909;31;20464;-62
2023/12/20 06:15:17;;;;;;;5.50;3.97;;;;;;;19.49;39.23;100895.69;4628664;31;20063;-63
2023/12/20 06:17:46;;;;;;;5.45;4.00;;;;;;;19.50;39.12;100883.13;4643806;30;20063;-63
2023/12/20 06:20:15;;;;;;;5.32;4.15;;;;;;;19.50;39.28;100867.84;4630909;31;20063;-63
2023/12/20 06:22:42;;;;;;;6.68;4.20;;;;;;;19.50;39.28;100864.31;4630627;31;20069;-63
2023/12/20 06:25:10;;;;;;;5.53;4.10;;;;;;;19.50;39.18;100853.59;4628049;31;20067;-64
2023/12/20 06:27:37;;;;;;;6.00;4.40;;;;;;;19.50;39.28;100861.63;4630790;31;20420;-63
2023/12/20 06:30:05;;;;;;;5.05;3.72;;;;;;;19.49;39.38;100866.16;4630834;31;20059;-64
2023/12/20 06:32:34;;;;;;;5.90;4.35;;;;;;;19.48;39.27;100864.44;4630674;31;20062;-64
2023/12/20 06:35:01;;;;;;;5.85;4.07;;;;;;;19.47;39.21;100851.16;4627959;31;20074;-64
2023/12/20 06:37:29;;;;;;;5.72;4.20;;;;;;;19.48;39.12;100848.31;4610442;31;20055;-64
2023/12/20 06:39:59;;;;;;;5.25;3.92;;;;;;;19.48;39.04;100845.66;4630538;31;20081;-64
2023/12/20 06:42:27;;;;;;;7.63;3.78;;;;;;;19.48;39.28;100850.16;4630568;31;20059;-64
2023/12/20 06:44:56;;;;;;;5.57;3.95;;;;;;;19.48;39.42;100855.53;4626736;31;20075;-64
2023/12/20 06:47:23;;;;;;;5.45;3.90;;;;;;;19.47;39.20;100860.06;4630349;31;20056;-62
2023/12/20 06:49:51;;;;;;;6.57;3.90;;;;;;;19.47;39.24;100859.22;4642788;30;20071;-63
2023/12/20 06:52:18;;;;;;;5.82;4.20;;;;;;;19.47;39.23;100868.13;4630213;31;20056;-62
2023/12/20 06:54:46;;;;;;;4.55;3.53;;;;;;;19.48;39.22;100858.22;4626582;31;20062;-63
2023/12/20 06:57:13;;;;;;;5.68;3.72;;;;;;;19.47;39.24;100865.44;4630220;31;20059;-62
2023/12/20 06:59:41;;;;;;;5.95;3.72;;;;;;;19.48;39.40;100866.28;4630073;31;20059;-61
2023/12/20 07:02:08;;;;;;;5.35;3.90;;;;;;;19.47;39.24;100861.91;4630280;31;20058;-63
2023/12/20 07:04:41;;;;;;;5.88;3.58;;;;;;;19.47;39.15;100854.69;4627577;31;20519;-64
2023/12/20 07:07:09;;;;;;;6.80;4.25;;;;;;;19.47;39.30;100854.69;4626604;31;20063;-64
2023/12/20 07:09:38;;;;;;;4.63;3.67;;;;;;;19.46;39.44;100853.00;4630007;31;20059;-63
2023/12/20 07:12:05;;;;;;;5.18;3.67;;;;;;;19.47;39.51;100843.94;4629265;31;20051;-63
2023/12/20 07:14:33;;;;;;;5.40;3.70;;;;;;;19.47;39.49;100843.09;4628349;31;20055;-63
2023/12/20 07:17:00;;;;;;;5.63;3.85;;;;;;;19.46;39.67;100847.63;4629870;31;20066;-63
2023/12/20 07:19:27;;;;;;;5.78;4.10;;;;;;;19.46;39.46;100850.31;4630334;31;20062;-62
2023/12/20 07:21:55;;;;;;;4.95;3.60;;;;;;;19.47;39.46;100843.09;4626511;31;20060;-63
2023/12/20 07:24:22;;;;;;;5.95;4.13;;;;;;;19.46;39.24;100846.78;4627401;31;20055;-63
2023/12/20 07:26:50;;;;;;;7.78;3.90;;;;;;;19.46;39.52;100854.84;4629441;31;20058;-63
2023/12/20 07:29:18;;;;;;;5.70;3.72;;;;;;;19.45;39.47;100855.81;4629857;31;20413;-64
2023/12/20 07:31:45;;;;;;;6.15;3.67;;;;;;;19.45;39.09;100870.09;4629236;31;20047;-63
2023/12/20 07:34:13;;;;;;;5.88;3.72;;;;;;;19.45;38.79;100880.00;4627492;31;20060;-62
2023/12/20 07:36:40;;;;;;;5.95;4.30;;;;;;;19.47;38.87;100878.00;4629948;31;20062;-59
2023/12/20 07:39:08;;;;;;;5.88;3.88;;;;;;;19.51;38.58;100876.75;4629677;31;20059;-62
2023/12/20 07:41:35;;;;;;;6.47;3.80;;;;;;;19.51;39.00;100880.28;4629141;31;20047;-62
2023/12/20 07:44:04;;;;;;;6.93;3.55;;;;;;;19.51;38.91;100866.88;4627593;31;20063;-63
2023/12/20 07:46:31;;;;;;;6.32;4.25;;;;;;;19.50;39.32;100875.06;4629935;31;20060;-63
2023/12/20 07:48:59;;;;;;;5.57;3.80;;;;;;;19.50;39.44;100875.06;4642460;30;20065;-63
2023/12/20 07:51:26;;;;;;;4.72;3.65;;;;;;;19.49;39.59;100884.13;4629029;31;20051;-63
2023/12/20 07:53:54;;;;;;;5.53;3.75;;;;;;;19.51;39.56;100884.81;4626061;31;20064;-63
2023/12/20 07:56:21;;;;;;;5.00;3.30;;;;;;;19.49;39.53;100884.97;4629657;31;20047;-63
2023/12/20 07:58:49;;;;;;;6.10;3.92;;;;;;;19.51;39.66;100895.56;4629276;31;20420;-63
2023/12/20 08:01:20;;;;;;;5.63;3.70;;;;;;;19.52;39.78;100894.56;4627544;31;20500;-58
2023/12/20 08:03:49;;;;;;;8.57;3.88;;;;;;;19.52;39.83;100905.31;4627615;31;20055;-59
2023/12/20 08:06:17;;;;;;;5.38;3.60;;;;;;;19.50;39.62;100904.59;4629339;31;20051;-59
2023/12/20 08:08:45;;;;;;;6.65;3.72;;;;;;;19.50;39.63;100904.59;4628989;31;20055;-59
2023/12/20 08:11:21;;;;;;;7.20;4.20;;;;;;;19.48;39.50;100903.88;4625396;31;20508;-59
2023/12/20 08:13:48;;;;;;;5.43;3.88;;;;;;;19.49;39.63;100921.69;4628648;31;20047;-59
2023/12/20 08:16:17;;;;;;;8.80;3.90;;;;;;;19.48;39.67;100918.13;4629257;31;20063;-60
2023/12/20 08:18:45;;;;;;;4.72;3.20;;;;;;;19.48;39.45;100914.59;4628914;30;20063;-59
2023/12/20 08:21:13;;;;;;;6.22;3.58;;;;;;;19.46;39.60;100909.38;4626178;31;20419;-59
2023/12/20 08:23:40;;;;;;;6.05;3.55;;;;;;;19.47;39.35;100923.66;4608363;31;20051;-54
2023/12/20 08:26:08;;;;;;;6.50;3.25;;;;;;;19.46;39.46;100930.00;4629000;31;20420;-59
2023/12/20 08:28:36;;;;;;;7.40;3.38;;;;;;;19.45;39.28;100934.53;4628751;31;20059;-59
2023/12/20 08:31:04;;;;;;;4.15;2.85;;;;;;;19.45;39.38;100929.16;4625949;31;20056;-59
2023/12/20 08:33:31;;;;;;;8.15;4.05;;;;;;;19.44;39.46;100935.50;4608724;31;20055;-59
2023/12/20 08:35:59;;;;;;;5.47;3.65;;;;;;;19.43;39.37;100936.47;4629050;31;20063;-57
2023/12/20 08:38:26;;;;;;;6.00;4.00;;;;;;;19.43;39.50;100933.78;4628399;31;20063;-59
2023/12/20 08:40:53;;;;;;;4.32;3.13;;;;;;;19.43;39.30;100931.13;4625805;31;20060;-59
2023/12/20 08:43:21;;;;;;;5.35;3.17;;;;;;;19.45;39.50;100910.38;4608638;31;20058;-59
2023/12/20 08:45:48;;;;;;;6.68;3.13;;;;;;;19.46;39.63;100911.22;4617851;31;20055;-59
2023/12/20 08:48:16;;;;;;;4.85;3.00;;;;;;;19.46;39.47;100895.94;4625570;30;20138;-59
2023/12/20 08:50:43;;;;;;;5.55;3.22;;;;;;;19.47;39.86;100897.66;4624732;31;20047;-59
2023/12/20 08:53:11;;;;;;;5.90;3.88;;;;;;;19.49;39.96;100903.75;4618639;31;20055;-59
2023/12/20 08:55:38;;;;;;;5.40;3.78;;;;;;;19.49;39.88;100897.53;4607416;31;20407;-60
2023/12/20 08:58:07;;;;;;;5.70;3.13;;;;;;;19.49;40.00;100905.59;4622422;31;20062;-61
2023/12/20 09:00:35;;;;;;;5.72;3.35;;;;;;;19.50;39.88;100923.41;4620122;31;20082;-59
2023/12/20 09:03:03;;;;;;;4.65;3.10;;;;;;;19.49;39.95;100932.44;4609935;31;20496;-60
2023/12/20 09:05:30;;;;;;;6.45;3.42;;;;;;;19.48;39.32;100928.88;4623087;31;20060;-59
2023/12/20 09:07:58;;;;;;;6.70;3.80;;;;;;;19.47;38.37;100932.56;4617040;31;20067;-57
2023/12/20 09:10:25;;;;;;;5.85;3.47;;;;;;;19.46;37.18;100930.00;4619928;31;20059;-58
2023/12/20 09:12:57;;;;;;;5.47;3.92;;;;;;;19.42;36.52;100920.50;4627761;31;20059;-57
2023/12/20 09:15:25;;;;;;;7.13;4.60;;;;;;;19.39;36.10;100934.19;4625668;31;20056;-55
2023/12/20 09:17:53;;;;;;;6.15;4.45;;;;;;;19.35;35.76;100933.59;4620286;31;20081;-57
2023/12/20 09:20:23;;;;;;;7.30;4.85;;;;;;;19.31;35.58;100929.47;4622979;31;20063;-58
2023/12/20 09:22:50;;;;;;;7.28;5.30;;;;;;;19.27;35.28;100922.66;4620320;31;20163;-57
2023/12/20 09:25:18;;;;;;;5.53;4.57;;;;;;;19.24;35.24;100922.91;4620499;31;20052;-58
2023/12/20 09:27:45;;;;;;;7.63;5.75;;;;;;;19.21;35.12;100939.28;4621127;31;20063;-60
2023/12/20 09:30:13;;;;;;;6.35;4.50;;;;;;;19.19;35.51;100936.72;4622395;31;20062;-60
2023/12/20 09:32:54;;;;;;;9.43;4.60;;;;;;;19.19;36.14;100933.19;4620183;31;20411;-60
2023/12/20 09:35:22;;;;;;;6.13;4.38;;;;;;;19.22;36.81;100947.19;4632591;30;20064;-59
2023/12/20 09:37:50;;;;;;;6.35;3.90;;;;;;;19.22;37.11;100939.16;4620870;31;20077;-59
2023/12/20 09:40:22;;;;;;;5.70;4.53;;;;;;;19.24;37.55;100939.88;4620165;31;20420;-59
2023/12/20 09:43:04;;;;;;;7.70;4.53;;;;;;;19.26;37.75;100932.53;4620071;31;20067;-59
2023/12/20 09:45:32;;;;;;;5.80;4.22;;;;;;;19.26;37.59;100937.06;4620960;31;20301;-62
2023/12/20 09:48:01;;;;;;;10.50;6.05;;;;;;;19.03;36.11;100925.56;4621439;31;20055;-52
2023/12/20 09:50:32;;;;;;;11.13;6.28;;;;;;;18.71;35.79;100912.13;4620414;31;20052;-51
2023/12/20 09:53:02;;;;;;;9.77;6.05;;;;;;;18.61;36.18;100913.81;4620601;31;20062;-56
2023/12/20 09:55:32;;;;;;;8.13;5.70;;;;;;;18.60;36.60;100896.88;4617491;31;20056;-55
2023/12/20 09:58:00;;;;;;;4.80;3.95;;;;;;;18.68;36.84;100899.78;4608265;31;20079;-56
2023/12/20 10:00:28;;;;;;;5.88;4.30;;;;;;;18.74;37.53;100904.66;4620243;31;20052;-54
2023/12/20 10:03:00;;;;;;;8.15;4.40;;;;;;;18.82;38.13;100905.88;4619322;31;20052;-54
2023/12/20 10:05:32;;;;;;;5.95;4.20;;;;;;;18.86;38.01;100881.34;4622562;31;20066;-54
2023/12/20 10:08:00;;;;;;;10.90;6.80;;;;;;;18.81;37.28;100885.41;4611108;31;20062;-55
2023/12/20 10:10:29;;;;;;;10.43;7.88;;;;;;;18.81;37.49;100872.84;4619332;31;20055;-54
2023/12/20 10:13:12;;;;;;;9.10;5.63;;;;;;;18.86;37.79;100873.31;4620946;31;20055;-53
2023/12/20 10:15:41;;;;;;;7.20;5.50;;;;;;;18.89;37.90;100861.47;4620568;31;20059;-56
2023/12/20 10:18:11;;;;;;;7.50;4.50;;;;;;;18.95;38.20;100852.91;4619503;31;20063;-60
2023/12/20 10:20:41;;;;;;;7.60;4.65;;;;;;;18.99;38.34;100846.31;4619236;31;20063;-60
2023/12/20 10:23:09;;;;;;;7.53;4.82;;;;;;;19.02;38.46;100843.38;4621795;31;20059;-60
2023/12/20 10:25:36;;;;;;;7.88;4.18;;;;;;;19.05;38.40;100836.91;4619422;31;20078;-60
2023/12/20 10:28:13;;;;;;;7.63;4.82;;;;;;;19.11;38.61;100831.00;4619273;31;20409;-58
2023/12/20 10:30:41;;;;;;;9.13;4.95;;;;;;;19.12;38.62;100821.97;4619528;31;20101;-57
2023/12/20 10:33:10;;;;;;;8.85;5.78;;;;;;;19.13;38.42;100823.69;4621818;31;20055;-58
2023/12/20 10:35:40;;;;;;;11.98;7.25;;;;;;;19.12;37.92;100819.28;4619220;31;20056;-58
2023/12/20 10:38:13;;;;;;;7.75;6.18;;;;;;;19.11;38.18;100810.38;4619326;31;20055;-59
2023/12/20 10:40:43;;;;;;;8.88;6.18;;;;;;;19.13;38.16;100808.44;4629491;31;20509;-60
2023/12/20 10:43:11;;;;;;;7.38;5.70;;;;;;;19.14;38.30;100802.06;4620422;31;20047;-60
2023/12/20 10:45:39;;;;;;;8.20;4.85;;;;;;;19.14;38.56;100802.06;4619102;31;20056;-60
2023/12/20 10:48:07;;;;;;;7.80;4.78;;;;;;;19.16;38.59;100797.44;4619333;31;20067;-58
2023/12/20 10:50:38;;;;;;;9.23;6.00;;;;;;;19.18;38.71;100800.81;4620433;31;20067;-57
2023/12/20 10:53:06;;;;;;;8.93;5.07;;;;;;;19.18;38.74;100784.72;4619165;31;20063;-58
2023/12/20 10:55:34;;;;;;;6.50;4.38;;;;;;;19.20;38.88;100787.25;4619211;31;20048;-54
2023/12/20 10:58:08;;;;;;;8.10;4.68;;;;;;;19.22;39.27;100790.69;4604195;31;20052;-59
2023/12/20 11:00:45;;;;;;;7.68;5.13;;;;;;;19.22;39.21;100786.16;4626070;31;20574;-59
2023/12/20 11:03:17;;;;;;;7.80;4.68;;;;;;;19.23;39.26;100787.84;4618772;31;20051;-59
2023/12/20 11:05:56;;;;;;;6.45;4.85;;;;;;;19.25;39.27;100785.91;4618827;31;20059;-59
2023/12/20 11:08:36;;;;;;;9.10;5.20;;;;;;;19.23;39.15;100792.38;4620996;31;20063;-59
2023/12/20 11:11:22;;;;;;;7.78;5.47;;;;;;;19.24;39.12;100794.94;4610624;31;20424;-59
2023/12/20 11:14:01;;;;;;;8.30;5.25;;;;;;;19.24;39.08;100786.91;4618758;31;20070;-59
2023/12/20 11:16:31;;;;;;;8.55;5.40;;;;;;;19.25;39.16;100783.22;4625743;31;20075;-59
2023/12/20 11:19:14;;;;;;;7.93;5.40;;;;;;;19.25;39.24;100780.53;4618470;31;20060;-59
2023/12/20 11:21:42;;;;;;;8.60;5.10;;;;;;;19.25;39.34;100775.16;4618126;31;20063;-59
2023/12/20 11:24:10;;;;;;;7.70;5.07;;;;;;;19.26;39.29;100782.22;4621176;31;20059;-59
2023/12/20 11:26:37;;;;;;;7.32;5.00;;;;;;;19.26;39.33;100784.91;4617522;31;20170;-52
2023/12/20 11:29:31;;;;;;;6.88;4.70;;;;;;;19.26;39.31;100776.88;4618243;31;20055;-53